Time;durP1;ratioP1;P1;durP2;ratioP2;P2;SDS_P1;SDS_P2;PMS_P1;PMS_P2;Temp;Humidity;BMP_temperature;BMP_pressure;BME280_temperature;BME280_humidity;BME280_pressure;Samples;Min_cycle;Max_cycle;Signal;HPM_P1;HPM_P2
2021/08/31 00:00:16;;;;;;;13.95;11.27;;;20.90;94.90;;;;;;5075829;28;20424;-89
2021/08/31 00:02:42;;;;;;;20.05;13.00;;;20.90;94.70;;;;;;5072439;28;20040;-89
2021/08/31 00:05:10;;;;;;;15.75;11.85;;;20.90;94.70;;;;;;5072404;28;20394;-89
2021/08/31 00:07:36;;;;;;;16.23;13.05;;;20.90;94.70;;;;;;5074317;28;20024;-88
2021/08/31 00:10:02;;;;;;;17.42;12.75;;;20.90;94.80;;;;;;5077600;28;20031;-88
2021/08/31 00:12:30;;;;;;;16.17;12.35;;;20.90;94.70;;;;;;5076275;28;20029;-88
2021/08/31 00:14:57;;;;;;;16.52;11.88;;;20.80;94.70;;;;;;5076221;28;20031;-88
2021/08/31 00:17:23;;;;;;;17.98;13.48;;;20.90;94.70;;;;;;5077525;28;20028;-88
2021/08/31 00:19:48;;;;;;;17.65;13.35;;;20.80;94.70;;;;;;5076210;28;20020;-88
2021/08/31 00:22:14;;;;;;;18.23;13.02;;;20.80;94.70;;;;;;5077595;28;20111;-88
2021/08/31 00:24:41;;;;;;;15.82;11.93;;;20.80;94.60;;;;;;5077365;28;20032;-88
2021/08/31 00:27:08;;;;;;;16.60;12.82;;;20.80;94.50;;;;;;5077392;28;20093;-89
2021/08/31 00:29:34;;;;;;;16.25;11.35;;;20.80;94.70;;;;;;5076387;28;20021;-89
2021/08/31 00:32:00;;;;;;;13.90;11.20;;;20.80;94.50;;;;;;5076619;28;20116;-88
2021/08/31 00:34:26;;;;;;;17.73;12.65;;;20.80;94.40;;;;;;5075609;28;20454;-88
2021/08/31 00:36:51;;;;;;;16.67;12.82;;;20.80;94.60;;;;;;5075957;28;20046;-86
2021/08/31 00:39:19;;;;;;;18.55;12.80;;;20.80;94.50;;;;;;5077311;28;20036;-87
2021/08/31 00:41:47;;;;;;;21.98;13.25;;;20.80;94.50;;;;;;5075958;28;20477;-87
2021/08/31 00:44:24;;;;;;;19.17;14.63;;;20.80;94.60;;;;;;5075671;28;20035;-87
2021/08/31 00:46:56;;;;;;;19.63;13.65;;;20.80;95.20;;;;;;5076571;28;20406;-86
2021/08/31 00:49:24;;;;;;;18.40;14.43;;;20.80;94.90;;;;;;5075276;28;20024;-89
2021/08/31 00:51:50;;;;;;;19.33;15.07;;;20.90;94.50;;;;;;5076974;28;20054;-88
2021/08/31 00:54:16;;;;;;;19.08;14.40;;;20.90;94.40;;;;;;5077064;28;20069;-87
2021/08/31 00:56:46;;;;;;;17.65;13.20;;;20.90;94.30;;;;;;5076672;28;20497;-88
2021/08/31 00:59:13;;;;;;;22.08;15.40;;;20.90;94.40;;;;;;5075600;28;20024;-89
2021/08/31 01:01:39;;;;;;;19.95;14.63;;;20.80;94.50;;;;;;5075349;28;20127;-89
2021/08/31 01:04:05;;;;;;;18.98;13.90;;;20.80;94.50;;;;;;5076581;28;20056;-88
2021/08/31 01:06:32;;;;;;;17.75;13.60;;;20.80;94.50;;;;;;5076417;28;20123;-88
2021/08/31 01:08:58;;;;;;;18.67;14.63;;;20.80;94.50;;;;;;5076945;28;20043;-88
2021/08/31 01:11:25;;;;;;;19.30;14.50;;;20.80;94.70;;;;;;5075334;28;20092;-88
2021/08/31 01:13:51;;;;;;;19.73;14.43;;;20.70;94.70;;;;;;5077448;28;20382;-88
2021/08/31 01:16:16;;;;;;;19.38;14.38;;;20.70;94.80;;;;;;5075452;28;20028;-87
2021/08/31 01:18:42;;;;;;;21.73;15.10;;;20.70;95.10;;;;;;5082667;28;20031;-85
2021/08/31 01:21:09;;;;;;;19.90;14.30;;;20.70;95.00;;;;;;5085007;28;20027;-84
2021/08/31 01:23:35;;;;;;;19.67;13.23;;;20.70;94.80;;;;;;5082177;28;20028;-87
2021/08/31 01:26:02;;;;;;;20.02;13.63;;;20.80;94.80;;;;;;5075430;28;20064;-87
2021/08/31 01:28:31;;;;;;;20.17;14.30;;;20.70;94.80;;;;;;5075177;28;20386;-87
2021/08/31 01:31:02;;;;;;;18.52;13.77;;;20.70;94.80;;;;;;5075005;28;20047;-87
2021/08/31 01:33:31;;;;;;;22.70;16.00;;;20.70;94.60;;;;;;5074869;28;20090;-87
2021/08/31 01:35:57;;;;;;;23.98;17.05;;;20.70;94.80;;;;;;5074580;28;20028;-87
2021/08/31 01:38:23;;;;;;;20.83;14.40;;;20.70;94.90;;;;;;5074862;28;20025;-87
2021/08/31 01:40:49;;;;;;;24.42;15.48;;;20.60;94.90;;;;;;5074621;28;20021;-88
2021/08/31 01:43:23;;;;;;;23.02;15.18;;;20.60;95.20;;;;;;5075620;28;20032;-88
2021/08/31 01:45:49;;;;;;;22.83;15.60;;;20.60;95.50;;;;;;5074357;28;20060;-88
2021/08/31 01:48:14;;;;;;;22.10;15.13;;;20.60;95.20;;;;;;5074956;28;20025;-88
2021/08/31 01:50:40;;;;;;;21.23;14.35;;;20.60;95.20;;;;;;5074645;28;20352;-87
2021/08/31 01:53:06;;;;;;;23.08;16.02;;;20.50;95.20;;;;;;5074831;28;20051;-87
2021/08/31 01:55:32;;;;;;;21.08;13.77;;;20.50;95.40;;;;;;5075320;28;20127;-88
2021/08/31 01:57:58;;;;;;;21.10;13.50;;;20.40;95.30;;;;;;5076095;28;20028;-87
2021/08/31 02:00:24;;;;;;;25.50;15.48;;;20.40;95.80;;;;;;5091030;28;20080;-88
2021/08/31 02:02:50;;;;;;;22.83;15.10;;;20.40;95.80;;;;;;5095931;28;20024;-88
2021/08/31 02:05:15;;;;;;;18.73;13.20;;;20.30;95.60;;;;;;5079177;28;20034;-88
2021/08/31 02:07:41;;;;;;;21.42;14.23;;;20.20;95.50;;;;;;5098108;28;20028;-87
2021/08/31 02:10:08;;;;;;;20.08;13.10;;;20.20;95.60;;;;;;5096223;28;20038;-88
2021/08/31 02:12:33;;;;;;;21.05;13.45;;;20.10;95.80;;;;;;5097568;28;20020;-87
2021/08/31 02:15:00;;;;;;;19.98;12.82;;;20.00;95.90;;;;;;5098555;28;20028;-87
2021/08/31 02:17:25;;;;;;;23.10;13.38;;;20.00;96.10;;;;;;5095117;28;20028;-88
2021/08/31 02:19:51;;;;;;;21.50;14.10;;;19.90;96.20;;;;;;5095249;28;20028;-87
2021/08/31 02:22:17;;;;;;;22.85;14.02;;;19.90;96.20;;;;;;5094139;28;20391;-87
2021/08/31 02:24:43;;;;;;;18.77;11.77;;;19.80;96.40;;;;;;5093992;28;20500;-87
2021/08/31 02:27:08;;;;;;;23.52;13.45;;;19.80;96.20;;;;;;5095272;28;20526;-87
2021/08/31 02:29:34;;;;;;;18.95;11.85;;;19.70;96.40;;;;;;5093502;28;20471;-88
2021/08/31 02:32:00;;;;;;;22.88;13.88;;;19.70;96.50;;;;;;5095174;28;20466;-88
2021/08/31 02:34:26;;;;;;;28.55;14.68;;;19.60;96.60;;;;;;5094111;28;20032;-87
2021/08/31 02:36:52;;;;;;;25.10;15.10;;;19.60;96.70;;;;;;5100487;28;20032;-86
2021/08/31 02:39:17;;;;;;;23.05;13.18;;;19.60;96.80;;;;;;5119020;28;20024;-86
2021/08/31 02:41:43;;;;;;;24.83;13.90;;;19.50;96.70;;;;;;5113260;28;20095;-87
2021/08/31 02:44:09;;;;;;;27.20;14.63;;;19.50;96.80;;;;;;5118526;28;20034;-86
2021/08/31 02:46:34;;;;;;;24.27;13.02;;;19.50;96.80;;;;;;5117852;28;20056;-86
2021/08/31 02:49:00;;;;;;;19.80;12.38;;;19.40;97.10;;;;;;5118601;28;20023;-87
2021/08/31 02:51:26;;;;;;;20.15;12.27;;;19.40;97.20;;;;;;5102141;28;20139;-85
2021/08/31 02:53:52;;;;;;;19.60;11.63;;;19.40;97.10;;;;;;5119397;28;20062;-86
2021/08/31 02:56:17;;;;;;;19.50;11.95;;;19.30;97.20;;;;;;5118708;28;20017;-86
2021/08/31 02:58:43;;;;;;;21.02;12.77;;;19.30;97.30;;;;;;5117193;28;20004;-89
2021/08/31 03:03:53;;;;;;;18.52;11.85;;;19.20;97.20;;;;;;5100713;28;20128;-87
2021/08/31 03:06:19;;;;;;;21.10;12.35;;;19.20;97.50;;;;;;5094100;28;20513;-86
2021/08/31 03:08:45;;;;;;;19.48;11.57;;;19.10;98.10;;;;;;5093455;28;20466;-87
2021/08/31 03:11:10;;;;;;;21.20;12.02;;;19.10;98.30;;;;;;5080232;28;20056;-87
2021/08/31 03:13:36;;;;;;;20.35;12.35;;;19.20;98.00;;;;;;5073235;28;20035;-87
2021/08/31 03:16:02;;;;;;;20.88;12.52;;;19.20;97.80;;;;;;5073001;28;20116;-87
2021/08/31 03:18:28;;;;;;;18.50;11.60;;;19.10;97.60;;;;;;5074127;28;20032;-87
2021/08/31 03:20:53;;;;;;;21.23;13.38;;;19.10;97.50;;;;;;5074576;28;20130;-87
2021/08/31 03:23:19;;;;;;;21.92;13.82;;;19.10;97.60;;;;;;5073123;28;20035;-88
2021/08/31 03:25:45;;;;;;;21.25;12.98;;;19.10;97.70;;;;;;5072509;28;20360;-87
2021/08/31 03:28:13;;;;;;;16.50;11.52;;;19.10;97.80;;;;;;5074344;28;20021;-87
2021/08/31 03:30:40;;;;;;;20.60;12.77;;;19.10;97.80;;;;;;5073424;28;20077;-87
2021/08/31 03:33:05;;;;;;;20.55;13.23;;;19.00;97.90;;;;;;5074017;28;20024;-87
2021/08/31 03:35:31;;;;;;;23.13;13.50;;;19.00;98.00;;;;;;5073188;28;20035;-89
2021/08/31 03:37:57;;;;;;;19.45;12.48;;;19.00;98.00;;;;;;5072628;28;20031;-88
2021/08/31 03:40:23;;;;;;;20.85;12.52;;;19.00;97.90;;;;;;5072891;28;20029;-88
2021/08/31 03:42:49;;;;;;;18.85;12.27;;;19.00;98.00;;;;;;5077868;28;20053;-88
2021/08/31 03:45:15;;;;;;;20.05;12.00;;;19.00;98.00;;;;;;5092523;28;20064;-87
2021/08/31 03:47:41;;;;;;;18.15;11.00;;;19.00;98.10;;;;;;5092436;28;20028;-87
2021/08/31 03:50:08;;;;;;;19.30;11.50;;;18.90;98.10;;;;;;5094058;28;20081;-88
2021/08/31 03:52:34;;;;;;;17.10;11.23;;;18.90;98.30;;;;;;5094329;28;20026;-88
2021/08/31 03:55:00;;;;;;;16.25;10.77;;;18.90;98.20;;;;;;5092474;28;20115;-89
2021/08/31 03:57:27;;;;;;;18.83;10.98;;;18.80;98.50;;;;;;5094243;28;20028;-88
2021/08/31 03:59:52;;;;;;;17.23;11.10;;;18.80;98.40;;;;;;5092749;28;20028;-89
2021/08/31 04:02:21;;;;;;;15.25;10.77;;;18.80;98.50;;;;;;5092766;28;20427;-88
2021/08/31 04:04:47;;;;;;;16.77;11.00;;;18.80;98.40;;;;;;5093728;28;20031;-88
2021/08/31 04:07:12;;;;;;;15.27;9.82;;;18.80;98.60;;;;;;5077029;28;20394;-88
2021/08/31 04:09:38;;;;;;;16.23;10.35;;;18.80;98.70;;;;;;5080410;28;20534;-89
2021/08/31 04:12:05;;;;;;;14.85;9.93;;;18.80;99.10;;;;;;5075030;28;20036;-88
2021/08/31 04:14:31;;;;;;;14.48;9.75;;;18.80;99.00;;;;;;5073992;28;20104;-88
2021/08/31 04:16:56;;;;;;;15.20;10.10;;;18.90;98.90;;;;;;5072059;28;20128;-89
2021/08/31 04:19:22;;;;;;;17.42;11.00;;;18.90;98.70;;;;;;5073523;28;20024;-88
2021/08/31 04:21:49;;;;;;;15.50;10.35;;;18.90;98.60;;;;;;5072078;28;20029;-88
2021/08/31 04:24:15;;;;;;;17.77;11.45;;;19.00;98.50;;;;;;5073783;28;20032;-90
2021/08/31 04:26:42;;;;;;;17.30;11.52;;;18.90;98.50;;;;;;5071626;28;20493;-89
2021/08/31 04:29:07;;;;;;;16.40;11.30;;;19.00;98.30;;;;;;5075741;28;20371;-88
2021/08/31 04:31:33;;;;;;;15.32;10.35;;;19.00;98.20;;;;;;5079104;28;20051;-88
2021/08/31 04:34:01;;;;;;;16.08;10.55;;;19.00;98.10;;;;;;5078924;28;20031;-90
2021/08/31 04:36:27;;;;;;;15.32;10.32;;;19.00;98.10;;;;;;5080720;28;20024;-88
2021/08/31 04:38:53;;;;;;;20.30;13.48;;;19.00;98.10;;;;;;5072409;28;20025;-88
2021/08/31 04:41:28;;;;;;;15.90;9.98;;;19.00;97.60;;;;;;5072023;28;20073;-86
2021/08/31 04:43:54;;;;;;;15.35;10.15;;;19.10;97.50;;;;;;5074249;28;20059;-88
2021/08/31 04:46:20;;;;;;;16.05;9.82;;;19.10;97.70;;;;;;5064597;28;20082;-85
2021/08/31 04:48:47;;;;;;;53.97;32.30;;;19.00;97.40;;;;;;5091505;28;20562;-88
2021/08/31 04:51:13;;;;;;;28.27;20.85;;;19.10;97.80;;;;;;5094151;28;20029;-92
2021/08/31 04:53:38;;;;;;;24.50;15.50;;;19.10;97.60;;;;;;5097238;28;20351;-91
2021/08/31 04:56:04;;;;;;;16.88;12.23;;;19.20;97.50;;;;;;5096818;28;20039;-87
2021/08/31 04:58:30;;;;;;;14.80;10.57;;;19.20;97.00;;;;;;5095747;28;20385;-85
2021/08/31 05:01:01;;;;;;;13.50;9.57;;;19.20;96.90;;;;;;5094673;28;20028;-90
2021/08/31 05:03:27;;;;;;;14.07;9.00;;;19.30;97.00;;;;;;5078944;28;20024;-91
2021/08/31 05:05:53;;;;;;;14.10;9.65;;;19.30;96.70;;;;;;5077885;28;20025;-91
2021/08/31 05:08:19;;;;;;;11.48;8.43;;;19.30;96.50;;;;;;5081069;28;20043;-86
2021/08/31 05:10:45;;;;;;;35.63;24.58;;;19.30;96.50;;;;;;5080057;28;20081;-89
2021/08/31 05:13:10;;;;;;;42.75;37.25;;;19.30;96.60;;;;;;5087392;28;20517;-89
2021/08/31 05:15:37;;;;;;;25.42;22.15;;;19.40;96.40;;;;;;5099204;28;20073;-93
2021/08/31 05:18:05;;;;;;;18.58;14.65;;;19.50;95.70;;;;;;5091689;28;20033;-94
2021/08/31 05:20:32;;;;;;;18.45;12.95;;;19.60;95.60;;;;;;5061777;28;20032;-93
2021/08/31 05:22:59;;;;;;;11.88;9.70;;;19.60;95.30;;;;;;5082272;28;20028;-92
2021/08/31 05:25:29;;;;;;;12.23;9.52;;;19.60;94.90;;;;;;5100783;28;20579;-92
2021/08/31 05:27:57;;;;;;;75.28;52.72;;;19.60;94.80;;;;;;5084778;28;20355;-95
2021/08/31 05:30:25;;;;;;;36.80;28.00;;;19.60;94.40;;;;;;5082841;28;20123;-88
2021/08/31 05:32:51;;;;;;;25.05;18.65;;;19.60;94.60;;;;;;5095261;28;20016;-84
2021/08/31 05:35:16;;;;;;;19.45;14.25;;;19.70;94.40;;;;;;5090942;28;20035;-86
2021/08/31 05:37:42;;;;;;;16.52;11.23;;;19.70;94.10;;;;;;5088307;28;20035;-84
2021/08/31 05:40:09;;;;;;;15.60;11.73;;;19.70;93.80;;;;;;5093318;28;20463;-84
2021/08/31 05:42:35;;;;;;;13.35;10.40;;;19.70;93.60;;;;;;5092155;28;20439;-85
2021/08/31 05:45:00;;;;;;;13.35;9.73;;;19.70;93.60;;;;;;5091754;28;20025;-86
2021/08/31 05:47:26;;;;;;;12.90;8.90;;;19.70;93.60;;;;;;5093793;28;20024;-85
2021/08/31 05:49:52;;;;;;;13.25;9.20;;;19.70;93.80;;;;;;5095069;28;20028;-85
2021/08/31 05:52:18;;;;;;;11.57;8.48;;;19.80;93.60;;;;;;5095065;28;20032;-85
2021/08/31 05:54:43;;;;;;;11.35;8.70;;;19.80;93.30;;;;;;5093098;28;20020;-86
2021/08/31 05:57:10;;;;;;;11.65;8.73;;;19.80;93.20;;;;;;5092025;28;20043;-83
2021/08/31 05:59:39;;;;;;;10.25;7.53;;;19.80;93.00;;;;;;5093617;28;20027;-85
2021/08/31 06:02:09;;;;;;;10.77;8.10;;;19.80;92.70;;;;;;5093849;28;20466;-84
2021/08/31 06:04:36;;;;;;;12.63;8.98;;;19.90;92.90;;;;;;5092315;28;20386;-85
2021/08/31 06:07:05;;;;;;;10.70;8.13;;;20.00;92.40;;;;;;5091888;28;20259;-84
2021/08/31 06:09:31;;;;;;;10.95;7.97;;;20.00;92.20;;;;;;5094737;28;20056;-85
2021/08/31 06:11:58;;;;;;;10.88;8.27;;;20.10;92.40;;;;;;5094708;28;20035;-85
2021/08/31 06:14:24;;;;;;;12.20;8.35;;;20.10;92.20;;;;;;5094530;28;20483;-84
2021/08/31 06:16:50;;;;;;;10.70;8.15;;;20.20;91.60;;;;;;5094135;28;20034;-86
2021/08/31 06:19:16;;;;;;;10.90;8.73;;;20.30;91.70;;;;;;5095411;28;20020;-85
2021/08/31 06:21:42;;;;;;;12.25;9.15;;;20.30;91.60;;;;;;5095896;28;20331;-86
2021/08/31 06:24:08;;;;;;;11.45;9.10;;;20.40;91.40;;;;;;5094227;28;20042;-84
2021/08/31 06:26:33;;;;;;;14.40;10.75;;;20.50;91.30;;;;;;5096981;28;20039;-85
2021/08/31 06:28:59;;;;;;;14.73;11.00;;;20.60;91.00;;;;;;5098539;28;20024;-85
2021/08/31 06:31:25;;;;;;;13.10;9.88;;;20.80;90.40;;;;;;5096745;28;20039;-86
2021/08/31 06:33:50;;;;;;;12.23;9.13;;;20.90;89.60;;;;;;5094262;28;20031;-86
2021/08/31 06:36:16;;;;;;;13.98;9.73;;;21.00;89.70;;;;;;5094445;28;20390;-85
2021/08/31 06:38:42;;;;;;;12.10;8.80;;;21.00;87.80;;;;;;5095041;28;20024;-85
2021/08/31 06:41:08;;;;;;;9.05;7.30;;;21.10;87.40;;;;;;5095309;28;20462;-86
2021/08/31 06:43:34;;;;;;;8.85;7.10;;;21.20;87.40;;;;;;5095114;28;20028;-86
2021/08/31 06:46:00;;;;;;;10.05;7.10;;;21.30;87.00;;;;;;5093977;28;20066;-85
2021/08/31 06:48:25;;;;;;;8.68;6.60;;;21.50;86.30;;;;;;5095257;28;20029;-86
2021/08/31 06:50:51;;;;;;;9.27;6.97;;;21.70;84.90;;;;;;5093705;28;20028;-86
2021/08/31 06:53:17;;;;;;;11.68;8.15;;;21.80;83.90;;;;;;5094979;28;20104;-86
2021/08/31 06:55:42;;;;;;;10.60;7.70;;;21.80;82.70;;;;;;5093579;28;20085;-86
2021/08/31 06:58:08;;;;;;;8.30;6.65;;;21.90;82.50;;;;;;5094704;28;20024;-87
2021/08/31 07:00:35;;;;;;;10.15;7.57;;;21.90;82.40;;;;;;5095142;28;20032;-87
2021/08/31 07:03:03;;;;;;;8.82;6.88;;;22.00;81.40;;;;;;5094647;28;20027;-87
2021/08/31 07:05:29;;;;;;;8.63;7.28;;;22.10;80.90;;;;;;5093502;28;20032;-88
2021/08/31 07:07:54;;;;;;;8.18;6.68;;;22.10;79.60;;;;;;5093643;28;20039;-87
2021/08/31 07:10:20;;;;;;;7.88;5.70;;;22.10;79.70;;;;;;5094568;28;20020;-87
2021/08/31 07:12:46;;;;;;;7.75;6.40;;;22.10;79.50;;;;;;5094398;28;20474;-86
2021/08/31 07:15:12;;;;;;;9.50;7.18;;;22.10;79.00;;;;;;5093638;28;20035;-86
2021/08/31 07:17:38;;;;;;;7.03;5.75;;;22.20;78.70;;;;;;5094399;28;20546;-87
2021/08/31 07:20:05;;;;;;;8.00;6.70;;;22.20;78.30;;;;;;5093149;28;20023;-87
2021/08/31 07:22:31;;;;;;;7.60;6.00;;;22.20;76.70;;;;;;5093377;28;20020;-87
2021/08/31 07:24:57;;;;;;;9.30;6.18;;;22.20;76.80;;;;;;5094808;28;20028;-87
2021/08/31 07:27:23;;;;;;;8.30;5.90;;;22.20;76.60;;;;;;5094584;28;20172;-87
2021/08/31 07:29:48;;;;;;;8.60;6.50;;;22.20;75.80;;;;;;5093409;28;20035;-86
2021/08/31 07:32:15;;;;;;;9.00;6.80;;;22.30;75.90;;;;;;5094360;28;20077;-86
2021/08/31 07:34:41;;;;;;;8.68;6.90;;;22.40;75.30;;;;;;5094446;28;20382;-88
2021/08/31 07:37:08;;;;;;;8.27;5.78;;;22.40;74.80;;;;;;5092822;28;20028;-87
2021/08/31 07:39:34;;;;;;;7.35;5.80;;;22.50;73.80;;;;;;5092909;28;20032;-86
2021/08/31 07:42:00;;;;;;;6.50;5.35;;;22.50;73.80;;;;;;5094154;28;20374;-87
2021/08/31 07:44:25;;;;;;;7.47;5.50;;;22.60;74.20;;;;;;5093796;28;20390;-86
2021/08/31 07:46:51;;;;;;;7.38;5.55;;;22.90;74.50;;;;;;5092565;28;20047;-87
2021/08/31 07:49:18;;;;;;;9.13;6.88;;;23.20;75.10;;;;;;5102823;28;20057;-87
2021/08/31 07:51:44;;;;;;;7.15;5.60;;;23.50;73.40;;;;;;5112079;28;20095;-87
2021/08/31 07:54:10;;;;;;;5.93;4.82;;;23.80;73.10;;;;;;5109272;28;20028;-87
2021/08/31 07:56:36;;;;;;;6.43;5.10;;;24.10;73.20;;;;;;5114110;28;20035;-87
2021/08/31 07:59:03;;;;;;;5.50;4.28;;;24.60;71.60;;;;;;5112457;28;20024;-88
2021/08/31 08:01:30;;;;;;;5.40;4.20;;;24.90;70.40;;;;;;5112971;28;20020;-88
2021/08/31 08:03:56;;;;;;;4.88;3.90;;;25.30;69.80;;;;;;5108702;28;20028;-86
2021/08/31 08:06:22;;;;;;;4.68;3.55;;;25.70;70.10;;;;;;5111219;28;20028;-87
2021/08/31 08:08:48;;;;;;;5.97;3.78;;;26.10;69.80;;;;;;5111467;28;20095;-87
2021/08/31 08:11:13;;;;;;;4.28;3.42;;;26.50;68.60;;;;;;5112359;28;20031;-86
2021/08/31 08:13:39;;;;;;;3.50;3.00;;;26.90;67.10;;;;;;5112138;28;20027;-86
2021/08/31 08:16:05;;;;;;;3.70;3.20;;;27.30;66.80;;;;;;5109193;28;20028;-85
2021/08/31 08:18:30;;;;;;;3.88;3.28;;;27.70;65.60;;;;;;5101239;28;20024;-86
2021/08/31 08:20:56;;;;;;;3.90;3.28;;;28.00;63.80;;;;;;5097945;28;20100;-87
2021/08/31 08:23:22;;;;;;;4.85;3.50;;;28.30;62.90;;;;;;5093944;28;20055;-87
2021/08/31 08:25:49;;;;;;;3.40;3.10;;;28.50;61.50;;;;;;5093829;28;20028;-86
2021/08/31 08:28:15;;;;;;;4.97;3.63;;;28.60;59.90;;;;;;5095201;28;20070;-87
2021/08/31 08:30:41;;;;;;;3.88;3.08;;;28.70;58.40;;;;;;5096974;28;20374;-87
2021/08/31 08:33:06;;;;;;;3.15;2.70;;;28.70;57.90;;;;;;5096506;28;20085;-88
2021/08/31 08:35:32;;;;;;;3.05;2.70;;;28.90;57.80;;;;;;5097541;28;20043;-87
2021/08/31 08:37:59;;;;;;;5.35;3.60;;;29.00;57.00;;;;;;5096143;28;20466;-86
2021/08/31 08:40:25;;;;;;;5.68;4.40;;;29.10;55.50;;;;;;5096128;28;20023;-87
2021/08/31 08:42:54;;;;;;;5.22;3.85;;;29.10;54.50;;;;;;5097486;28;20184;-89
2021/08/31 08:45:21;;;;;;;4.10;3.45;;;29.10;55.00;;;;;;5097438;28;20135;-88
2021/08/31 08:47:47;;;;;;;3.10;2.80;;;29.20;54.30;;;;;;5095997;28;20024;-86
2021/08/31 08:50:13;;;;;;;3.35;2.92;;;29.40;54.00;;;;;;5095997;28;20020;-87
2021/08/31 08:52:39;;;;;;;4.50;2.83;;;29.60;52.90;;;;;;5096918;28;20473;-86
2021/08/31 08:55:10;;;;;;;3.17;2.67;;;29.80;52.50;;;;;;5095907;28;20028;-87
2021/08/31 08:57:37;;;;;;;2.90;2.60;;;29.90;51.30;;;;;;5095751;28;20027;-88
2021/08/31 09:00:05;;;;;;;3.65;2.70;;;30.00;52.20;;;;;;5096522;28;20436;-86
2021/08/31 09:02:37;;;;;;;3.53;3.15;;;30.30;52.40;;;;;;5097662;28;20370;-87
2021/08/31 09:05:09;;;;;;;3.42;3.05;;;30.40;49.40;;;;;;5095430;28;20062;-87
2021/08/31 09:07:39;;;;;;;4.85;3.10;;;30.50;50.40;;;;;;5096686;28;20032;-86
2021/08/31 09:10:12;;;;;;;2.63;2.40;;;30.60;49.60;;;;;;5095985;28;20027;-87
2021/08/31 09:12:39;;;;;;;4.13;2.70;;;30.80;49.80;;;;;;5096547;28;20028;-86
2021/08/31 09:15:31;;;;;;;4.00;2.55;;;31.00;49.50;;;;;;5094864;28;20036;-87
2021/08/31 09:18:03;;;;;;;2.80;2.33;;;31.10;45.30;;;;;;5095234;28;20024;-87
2021/08/31 09:20:31;;;;;;;2.50;2.30;;;31.10;48.20;;;;;;5096840;28;20024;-85
2021/08/31 09:22:57;;;;;;;2.22;2.00;;;31.20;47.00;;;;;;5095304;28;20052;-87
2021/08/31 09:25:41;;;;;;;2.35;2.15;;;31.10;46.80;;;;;;5094947;28;20056;-86
2021/08/31 09:28:18;;;;;;;2.33;2.10;;;31.20;45.50;;;;;;5096151;28;20024;-86
2021/08/31 09:30:44;;;;;;;3.13;2.45;;;31.20;44.00;;;;;;5096519;28;20024;-87
2021/08/31 09:33:16;;;;;;;3.17;2.80;;;31.20;46.20;;;;;;5096295;28;20073;-88
2021/08/31 09:35:44;;;;;;;3.45;2.40;;;31.20;45.50;;;;;;5095052;28;20032;-86
2021/08/31 09:38:14;;;;;;;3.40;2.60;;;31.30;46.10;;;;;;5095438;28;20024;-88
2021/08/31 09:40:45;;;;;;;3.03;2.63;;;31.50;45.80;;;;;;5095505;28;20024;-87
2021/08/31 09:43:17;;;;;;;2.72;2.53;;;31.60;45.80;;;;;;5095000;28;20035;-88
2021/08/31 09:45:47;;;;;;;2.70;2.50;;;31.90;46.00;;;;;;5096516;28;20067;-87
2021/08/31 09:48:18;;;;;;;2.90;2.58;;;32.10;45.80;;;;;;5095249;28;20024;-85
2021/08/31 09:50:52;;;;;;;2.67;2.30;;;32.30;45.30;;;;;;5095832;28;20032;-84
2021/08/31 09:53:23;;;;;;;3.60;2.72;;;32.40;43.00;;;;;;5094661;28;20458;-87
2021/08/31 09:56:01;;;;;;;2.33;2.13;;;32.40;44.70;;;;;;5096151;28;20028;-88
2021/08/31 09:58:31;;;;;;;2.63;2.42;;;32.60;41.60;;;;;;5095767;28;20021;-86
2021/08/31 10:00:57;;;;;;;2.30;2.10;;;32.80;44.60;;;;;;5095617;28;20024;-87
2021/08/31 10:03:24;;;;;;;3.03;2.58;;;33.20;44.30;;;;;;5095550;28;20100;-87
2021/08/31 10:05:54;;;;;;;2.95;2.55;;;33.20;43.20;;;;;;5098165;28;20028;-90
2021/08/31 10:08:21;;;;;;;2.45;2.25;;;33.20;42.30;;;;;;5094958;28;20031;-86
2021/08/31 10:10:51;;;;;;;3.35;2.47;;;33.10;42.50;;;;;;5094526;28;20386;-87
2021/08/31 10:13:20;;;;;;;2.33;2.13;;;33.20;42.10;;;;;;5095765;28;20051;-88
2021/08/31 10:15:50;;;;;;;2.15;1.90;;;33.20;42.20;;;;;;5095423;28;20028;-88
2021/08/31 10:18:19;;;;;;;2.10;2.00;;;33.30;42.10;;;;;;5094845;28;20024;-87
2021/08/31 10:21:13;;;;;;;2.20;2.00;;;33.50;42.20;;;;;;5095203;28;20369;-86
2021/08/31 10:24:17;;;;;;;2.10;1.90;;;33.80;39.00;;;;;;5095185;28;20068;-89
2021/08/31 10:27:12;;;;;;;2.08;1.85;;;33.90;39.30;;;;;;5081310;28;20093;-87
2021/08/31 10:29:38;;;;;;;2.05;1.85;;;34.10;39.20;;;;;;5093215;28;20343;-85
2021/08/31 10:32:04;;;;;;;2.85;2.00;;;34.20;41.20;;;;;;5093120;28;20023;-86
2021/08/31 10:34:30;;;;;;;2.80;1.90;;;34.30;41.10;;;;;;5094347;28;20424;-90
2021/08/31 10:37:17;;;;;;;179.05;160.30;;;34.20;40.60;;;;;;5094684;28;20020;-88
2021/08/31 10:39:51;;;;;;;77.28;69.00;;;33.70;39.40;;;;;;5098643;28;20076;-86
2021/08/31 10:42:29;;;;;;;28.05;25.20;;;33.20;40.50;;;;;;5095915;28;20081;-88
2021/08/31 10:44:56;;;;;;;12.80;10.38;;;32.70;39.40;;;;;;5102327;28;20028;-91
2021/08/31 10:47:32;;;;;;;5.72;5.13;;;32.30;41.00;;;;;;5100846;28;20123;-88
2021/08/31 10:49:57;;;;;;;3.55;3.22;;;32.40;40.90;;;;;;5094535;28;20478;-87
2021/08/31 10:52:34;;;;;;;2.75;2.20;;;32.60;41.20;;;;;;5094194;28;20030;-90
2021/08/31 10:55:01;;;;;;;2.60;2.40;;;33.10;39.30;;;;;;5092998;28;20373;-87
2021/08/31 10:57:36;;;;;;;3.08;2.83;;;33.60;40.60;;;;;;5098907;28;20032;-88
2021/08/31 11:00:24;;;;;;;2.25;2.05;;;34.10;39.50;;;;;;5099655;28;20052;-88
2021/08/31 11:02:59;;;;;;;2.08;1.98;;;34.20;39.00;;;;;;5091882;28;20028;-88
2021/08/31 11:05:29;;;;;;;1.80;1.70;;;34.00;38.90;;;;;;5091735;28;20367;-90
2021/08/31 11:08:01;;;;;;;2.10;1.90;;;33.80;39.10;;;;;;5092209;28;20031;-90
2021/08/31 11:10:34;;;;;;;1.80;1.70;;;33.50;39.10;;;;;;5094424;28;20021;-88
2021/08/31 11:13:22;;;;;;;4.22;1.95;;;33.40;39.30;;;;;;5094284;28;20024;-87
2021/08/31 11:15:55;;;;;;;4.05;1.92;;;33.70;39.30;;;;;;5095183;28;20028;-89
2021/08/31 11:18:21;;;;;;;2.00;1.80;;;34.10;39.70;;;;;;5095790;28;20520;-89
2021/08/31 11:20:47;;;;;;;2.83;2.30;;;34.50;39.60;;;;;;5095148;28;20056;-88
2021/08/31 11:23:19;;;;;;;1.80;1.70;;;35.00;39.40;;;;;;5095078;28;20107;-89
2021/08/31 11:25:50;;;;;;;2.33;2.10;;;35.50;38.20;;;;;;5094772;28;20093;-89
2021/08/31 11:28:20;;;;;;;2.00;1.80;;;35.90;38.30;;;;;;5094771;28;20024;-88
2021/08/31 11:30:58;;;;;;;1.75;1.65;;;36.10;37.90;;;;;;5094659;28;20040;-90
2021/08/31 11:33:44;;;;;;;5.15;2.13;;;36.20;34.70;;;;;;5093255;28;20052;-90
2021/08/31 11:36:29;;;;;;;2.10;1.98;;;36.30;34.90;;;;;;5094619;28;20103;-89
2021/08/31 11:39:03;;;;;;;2.17;1.98;;;36.40;36.90;;;;;;5093397;28;20036;-88
2021/08/31 11:41:42;;;;;;;2.55;2.20;;;36.40;36.90;;;;;;5093345;28;20060;-90
2021/08/31 11:44:21;;;;;;;2.00;1.83;;;36.50;35.70;;;;;;5094646;28;20071;-89
2021/08/31 11:46:56;;;;;;;1.85;1.70;;;36.60;36.00;;;;;;5092772;28;20490;-89
2021/08/31 11:49:26;;;;;;;2.33;1.90;;;36.50;35.50;;;;;;5093685;28;20471;-89
2021/08/31 11:51:54;;;;;;;1.90;1.77;;;36.50;35.40;;;;;;5093835;28;20111;-90
2021/08/31 11:54:20;;;;;;;1.73;1.63;;;36.30;35.40;;;;;;5093424;28;20073;-89
2021/08/31 11:56:58;;;;;;;1.95;1.85;;;36.20;35.20;;;;;;5092871;28;20032;-89
2021/08/31 11:59:34;;;;;;;2.03;1.90;;;36.20;35.90;;;;;;5092673;28;20458;-87
2021/08/31 12:02:19;;;;;;;1.90;1.80;;;36.30;34.70;;;;;;5093675;28;20488;-88
2021/08/31 12:04:54;;;;;;;2.25;2.05;;;36.80;34.90;;;;;;5098131;28;20028;-88
2021/08/31 12:07:29;;;;;;;2.28;1.90;;;37.00;34.30;;;;;;5096838;28;20445;-87
2021/08/31 12:10:03;;;;;;;2.13;1.90;;;37.30;35.00;;;;;;5097065;28;20054;-88
2021/08/31 12:12:30;;;;;;;2.67;1.73;;;37.20;34.60;;;;;;5096566;28;20055;-87
2021/08/31 12:14:56;;;;;;;2.80;2.00;;;36.90;35.00;;;;;;5097327;28;20024;-88
2021/08/31 12:17:34;;;;;;;1.88;1.77;;;36.90;35.20;;;;;;5096768;28;20032;-88
2021/08/31 12:20:13;;;;;;;1.83;1.73;;;37.20;33.50;;;;;;5097899;28;20016;-89
2021/08/31 12:22:42;;;;;;;1.80;1.70;;;37.20;33.60;;;;;;5098112;28;20038;-89
2021/08/31 12:25:10;;;;;;;1.60;1.50;;;37.10;34.60;;;;;;5096577;28;20024;-88
2021/08/31 12:27:45;;;;;;;2.13;1.92;;;36.70;34.20;;;;;;5113373;28;20032;-88
2021/08/31 12:30:13;;;;;;;2.00;1.80;;;36.00;34.90;;;;;;5096463;28;20052;-88
2021/08/31 12:32:40;;;;;;;2.95;2.00;;;35.70;35.40;;;;;;5096562;28;20390;-89
2021/08/31 12:35:27;;;;;;;2.92;2.15;;;35.70;35.30;;;;;;5096055;28;20119;-89
2021/08/31 12:38:10;;;;;;;23.63;19.55;;;35.90;34.90;;;;;;5096593;28;20024;-90
2021/08/31 12:40:58;;;;;;;36.20;33.00;;;36.30;33.40;;;;;;5096631;28;20042;-89
2021/08/31 12:43:46;;;;;;;10.85;9.85;;;36.40;34.70;;;;;;5096268;28;20020;-89